sensor_id;sensor_type;location;lat;lon;timestamp;P1;durP1;ratioP1;P2;durP2;ratioP2
76589;SDS011;65471;55.908;37.880;2023-08-06T00:02:05;64.35;;;29.42;;
76589;SDS011;65471;55.908;37.880;2023-08-06T00:04:32;68.90;;;29.45;;
76589;SDS011;65471;55.908;37.880;2023-08-06T00:06:59;74.53;;;31.38;;
76589;SDS011;65471;55.908;37.880;2023-08-06T00:09:26;68.40;;;30.83;;
76589;SDS011;65471;55.908;37.880;2023-08-06T00:11:53;61.50;;;31.25;;
76589;SDS011;65471;55.908;37.880;2023-08-06T00:14:20;58.05;;;29.00;;
76589;SDS011;65471;55.908;37.880;2023-08-06T00:16:47;59.85;;;28.95;;
76589;SDS011;65471;55.908;37.880;2023-08-06T00:19:14;71.70;;;30.20;;
76589;SDS011;65471;55.908;37.880;2023-08-06T00:21:41;66.15;;;28.88;;
76589;SDS011;65471;55.908;37.880;2023-08-06T00:24:08;67.28;;;30.80;;
76589;SDS011;65471;55.908;37.880;2023-08-06T00:26:35;54.90;;;29.77;;
76589;SDS011;65471;55.908;37.880;2023-08-06T00:29:02;69.60;;;31.08;;
76589;SDS011;65471;55.908;37.880;2023-08-06T00:31:28;68.10;;;31.33;;
76589;SDS011;65471;55.908;37.880;2023-08-06T00:33:56;68.95;;;31.65;;
76589;SDS011;65471;55.908;37.880;2023-08-06T00:36:22;62.58;;;30.40;;
76589;SDS011;65471;55.908;37.880;2023-08-06T00:38:49;67.72;;;30.15;;
76589;SDS011;65471;55.908;37.880;2023-08-06T00:41:16;76.30;;;32.47;;
76589;SDS011;65471;55.908;37.880;2023-08-06T00:43:43;72.75;;;29.38;;
76589;SDS011;65471;55.908;37.880;2023-08-06T00:46:10;67.50;;;30.55;;
76589;SDS011;65471;55.908;37.880;2023-08-06T00:48:37;70.10;;;29.95;;
76589;SDS011;65471;55.908;37.880;2023-08-06T00:51:04;67.50;;;31.45;;
76589;SDS011;65471;55.908;37.880;2023-08-06T00:53:32;60.28;;;29.10;;
76589;SDS011;65471;55.908;37.880;2023-08-06T00:55:58;72.95;;;29.48;;
76589;SDS011;65471;55.908;37.880;2023-08-06T00:58:26;53.28;;;29.17;;
76589;SDS011;65471;55.908;37.880;2023-08-06T01:00:53;68.53;;;29.40;;
76589;SDS011;65471;55.908;37.880;2023-08-06T01:03:20;69.47;;;29.38;;
76589;SDS011;65471;55.908;37.880;2023-08-06T01:05:47;55.97;;;28.27;;
76589;SDS011;65471;55.908;37.880;2023-08-06T01:10:55;61.83;;;30.58;;
76589;SDS011;65471;55.908;37.880;2023-08-06T01:13:39;63.30;;;28.70;;
76589;SDS011;65471;55.908;37.880;2023-08-06T01:16:11;66.53;;;30.55;;
76589;SDS011;65471;55.908;37.880;2023-08-06T01:18:40;67.60;;;30.35;;
76589;SDS011;65471;55.908;37.880;2023-08-06T01:21:08;71.68;;;29.63;;
76589;SDS011;65471;55.908;37.880;2023-08-06T01:23:39;54.47;;;29.33;;
76589;SDS011;65471;55.908;37.880;2023-08-06T01:31:41;71.00;;;29.52;;
76589;SDS011;65471;55.908;37.880;2023-08-06T01:34:17;60.97;;;29.10;;
76589;SDS011;65471;55.908;37.880;2023-08-06T01:36:47;68.60;;;30.13;;
76589;SDS011;65471;55.908;37.880;2023-08-06T01:39:14;79.88;;;30.67;;
76589;SDS011;65471;55.908;37.880;2023-08-06T01:41:41;64.53;;;29.80;;
76589;SDS011;65471;55.908;37.880;2023-08-06T01:44:08;74.15;;;29.13;;
76589;SDS011;65471;55.908;37.880;2023-08-06T01:46:35;78.07;;;29.63;;
76589;SDS011;65471;55.908;37.880;2023-08-06T01:49:02;58.75;;;29.80;;
76589;SDS011;65471;55.908;37.880;2023-08-06T01:51:29;51.78;;;29.20;;
76589;SDS011;65471;55.908;37.880;2023-08-06T01:53:56;64.78;;;29.58;;
76589;SDS011;65471;55.908;37.880;2023-08-06T01:56:23;73.28;;;28.75;;
76589;SDS011;65471;55.908;37.880;2023-08-06T01:58:50;59.22;;;29.95;;
76589;SDS011;65471;55.908;37.880;2023-08-06T02:01:17;62.47;;;30.42;;
76589;SDS011;65471;55.908;37.880;2023-08-06T02:03:44;61.10;;;30.90;;
76589;SDS011;65471;55.908;37.880;2023-08-06T02:06:11;72.97;;;31.95;;
76589;SDS011;65471;55.908;37.880;2023-08-06T02:08:38;72.78;;;29.88;;
76589;SDS011;65471;55.908;37.880;2023-08-06T02:11:06;72.00;;;30.33;;
76589;SDS011;65471;55.908;37.880;2023-08-06T02:13:33;75.30;;;32.15;;
76589;SDS011;65471;55.908;37.880;2023-08-06T02:16:00;65.50;;;28.75;;
76589;SDS011;65471;55.908;37.880;2023-08-06T02:18:27;63.60;;;30.38;;
76589;SDS011;65471;55.908;37.880;2023-08-06T02:20:54;70.07;;;31.20;;
76589;SDS011;65471;55.908;37.880;2023-08-06T02:23:25;68.60;;;34.55;;
76589;SDS011;65471;55.908;37.880;2023-08-06T02:25:57;61.15;;;31.80;;
76589;SDS011;65471;55.908;37.880;2023-08-06T02:28:25;81.13;;;31.48;;
76589;SDS011;65471;55.908;37.880;2023-08-06T02:30:52;68.65;;;29.92;;
76589;SDS011;65471;55.908;37.880;2023-08-06T02:33:19;68.22;;;32.28;;
76589;SDS011;65471;55.908;37.880;2023-08-06T02:35:46;55.22;;;29.35;;
76589;SDS011;65471;55.908;37.880;2023-08-06T02:38:13;65.63;;;30.65;;
76589;SDS011;65471;55.908;37.880;2023-08-06T02:40:46;67.57;;;31.05;;
76589;SDS011;65471;55.908;37.880;2023-08-06T02:43:13;66.55;;;31.40;;
76589;SDS011;65471;55.908;37.880;2023-08-06T02:45:40;64.60;;;29.63;;
76589;SDS011;65471;55.908;37.880;2023-08-06T02:48:07;69.82;;;31.75;;
76589;SDS011;65471;55.908;37.880;2023-08-06T02:50:38;64.28;;;31.80;;
76589;SDS011;65471;55.908;37.880;2023-08-06T02:53:06;67.18;;;31.45;;
76589;SDS011;65471;55.908;37.880;2023-08-06T02:55:34;68.38;;;32.05;;
76589;SDS011;65471;55.908;37.880;2023-08-06T02:58:01;70.75;;;31.08;;
76589;SDS011;65471;55.908;37.880;2023-08-06T03:00:28;51.45;;;30.63;;
76589;SDS011;65471;55.908;37.880;2023-08-06T03:02:55;69.15;;;31.65;;
76589;SDS011;65471;55.908;37.880;2023-08-06T03:05:22;63.65;;;31.23;;
76589;SDS011;65471;55.908;37.880;2023-08-06T03:07:49;71.97;;;32.35;;
76589;SDS011;65471;55.908;37.880;2023-08-06T03:10:16;77.60;;;32.35;;
76589;SDS011;65471;55.908;37.880;2023-08-06T03:12:44;68.13;;;31.05;;
76589;SDS011;65471;55.908;37.880;2023-08-06T03:15:11;74.63;;;32.55;;
76589;SDS011;65471;55.908;37.880;2023-08-06T03:17:38;58.80;;;31.38;;
76589;SDS011;65471;55.908;37.880;2023-08-06T03:20:05;71.00;;;31.77;;
76589;SDS011;65471;55.908;37.880;2023-08-06T03:22:32;71.23;;;32.27;;
76589;SDS011;65471;55.908;37.880;2023-08-06T03:24:59;78.00;;;32.33;;
76589;SDS011;65471;55.908;37.880;2023-08-06T03:27:30;64.40;;;31.02;;
76589;SDS011;65471;55.908;37.880;2023-08-06T03:29:57;71.22;;;31.70;;
76589;SDS011;65471;55.908;37.880;2023-08-06T03:32:24;69.68;;;31.70;;
76589;SDS011;65471;55.908;37.880;2023-08-06T03:34:51;65.60;;;30.48;;
76589;SDS011;65471;55.908;37.880;2023-08-06T03:37:18;65.68;;;31.00;;
76589;SDS011;65471;55.908;37.880;2023-08-06T03:39:45;61.08;;;30.85;;
76589;SDS011;65471;55.908;37.880;2023-08-06T03:42:11;62.22;;;30.85;;
76589;SDS011;65471;55.908;37.880;2023-08-06T03:44:38;76.07;;;32.22;;
76589;SDS011;65471;55.908;37.880;2023-08-06T03:47:06;73.63;;;31.98;;
76589;SDS011;65471;55.908;37.880;2023-08-06T03:49:32;68.18;;;31.05;;
76589;SDS011;65471;55.908;37.880;2023-08-06T03:51:59;77.13;;;32.40;;
76589;SDS011;65471;55.908;37.880;2023-08-06T03:54:26;57.60;;;30.73;;
76589;SDS011;65471;55.908;37.880;2023-08-06T03:56:53;73.45;;;30.63;;
76589;SDS011;65471;55.908;37.880;2023-08-06T03:59:20;63.05;;;30.70;;
76589;SDS011;65471;55.908;37.880;2023-08-06T04:01:47;62.65;;;29.52;;
76589;SDS011;65471;55.908;37.880;2023-08-06T04:04:14;56.10;;;29.35;;
76589;SDS011;65471;55.908;37.880;2023-08-06T04:06:41;72.13;;;31.90;;
76589;SDS011;65471;55.908;37.880;2023-08-06T04:09:08;68.07;;;28.67;;
76589;SDS011;65471;55.908;37.880;2023-08-06T04:11:35;61.80;;;29.52;;
76589;SDS011;65471;55.908;37.880;2023-08-06T04:14:02;61.85;;;28.50;;
76589;SDS011;65471;55.908;37.880;2023-08-06T04:16:29;66.32;;;27.58;;
76589;SDS011;65471;55.908;37.880;2023-08-06T04:18:56;66.57;;;26.75;;
76589;SDS011;65471;55.908;37.880;2023-08-06T04:21:23;62.08;;;28.10;;
76589;SDS011;65471;55.908;37.880;2023-08-06T04:23:49;56.67;;;27.63;;
76589;SDS011;65471;55.908;37.880;2023-08-06T04:26:16;57.30;;;27.25;;
76589;SDS011;65471;55.908;37.880;2023-08-06T04:28:43;50.03;;;25.95;;
76589;SDS011;65471;55.908;37.880;2023-08-06T04:31:10;55.35;;;25.58;;
76589;SDS011;65471;55.908;37.880;2023-08-06T04:33:37;53.92;;;25.38;;
76589;SDS011;65471;55.908;37.880;2023-08-06T04:36:04;57.85;;;24.55;;
76589;SDS011;65471;55.908;37.880;2023-08-06T04:38:31;60.60;;;25.35;;
76589;SDS011;65471;55.908;37.880;2023-08-06T04:40:58;56.95;;;25.00;;
76589;SDS011;65471;55.908;37.880;2023-08-06T04:43:25;53.75;;;24.10;;
76589;SDS011;65471;55.908;37.880;2023-08-06T04:45:53;53.50;;;23.52;;
76589;SDS011;65471;55.908;37.880;2023-08-06T04:48:21;48.13;;;22.52;;
76589;SDS011;65471;55.908;37.880;2023-08-06T04:50:49;57.03;;;22.33;;
76589;SDS011;65471;55.908;37.880;2023-08-06T04:53:17;59.88;;;24.00;;
76589;SDS011;65471;55.908;37.880;2023-08-06T04:55:44;52.58;;;23.70;;
76589;SDS011;65471;55.908;37.880;2023-08-06T04:58:11;53.47;;;20.83;;
76589;SDS011;65471;55.908;37.880;2023-08-06T05:00:39;42.33;;;21.10;;
76589;SDS011;65471;55.908;37.880;2023-08-06T05:03:06;49.47;;;20.30;;
76589;SDS011;65471;55.908;37.880;2023-08-06T05:05:33;50.43;;;21.90;;
76589;SDS011;65471;55.908;37.880;2023-08-06T05:08:01;56.25;;;21.40;;
76589;SDS011;65471;55.908;37.880;2023-08-06T05:10:28;70.85;;;22.50;;
76589;SDS011;65471;55.908;37.880;2023-08-06T05:12:55;62.03;;;23.23;;
76589;SDS011;65471;55.908;37.880;2023-08-06T05:15:22;45.40;;;21.13;;
76589;SDS011;65471;55.908;37.880;2023-08-06T05:17:49;84.50;;;25.90;;
76589;SDS011;65471;55.908;37.880;2023-08-06T05:20:16;60.17;;;20.33;;
76589;SDS011;65471;55.908;37.880;2023-08-06T05:22:43;86.93;;;21.67;;
76589;SDS011;65471;55.908;37.880;2023-08-06T05:25:12;65.88;;;21.48;;
76589;SDS011;65471;55.908;37.880;2023-08-06T05:27:40;51.10;;;19.83;;
76589;SDS011;65471;55.908;37.880;2023-08-06T05:30:07;60.83;;;21.85;;
76589;SDS011;65471;55.908;37.880;2023-08-06T05:32:35;46.35;;;15.73;;
76589;SDS011;65471;55.908;37.880;2023-08-06T05:35:02;55.67;;;20.65;;
76589;SDS011;65471;55.908;37.880;2023-08-06T05:37:30;47.25;;;17.20;;
76589;SDS011;65471;55.908;37.880;2023-08-06T05:39:57;60.28;;;23.15;;
76589;SDS011;65471;55.908;37.880;2023-08-06T05:42:24;52.25;;;18.60;;
76589;SDS011;65471;55.908;37.880;2023-08-06T05:44:51;46.67;;;17.52;;
76589;SDS011;65471;55.908;37.880;2023-08-06T05:47:17;35.10;;;14.77;;
76589;SDS011;65471;55.908;37.880;2023-08-06T05:49:46;37.95;;;15.10;;
76589;SDS011;65471;55.908;37.880;2023-08-06T05:52:13;37.03;;;16.70;;
76589;SDS011;65471;55.908;37.880;2023-08-06T05:54:39;39.50;;;16.55;;
76589;SDS011;65471;55.908;37.880;2023-08-06T05:57:07;53.97;;;20.92;;
76589;SDS011;65471;55.908;37.880;2023-08-06T05:59:34;47.05;;;17.77;;
76589;SDS011;65471;55.908;37.880;2023-08-06T06:02:01;51.50;;;16.40;;
76589;SDS011;65471;55.908;37.880;2023-08-06T06:04:28;45.13;;;15.68;;
76589;SDS011;65471;55.908;37.880;2023-08-06T06:06:55;31.92;;;15.50;;
76589;SDS011;65471;55.908;37.880;2023-08-06T06:09:22;42.13;;;14.50;;
76589;SDS011;65471;55.908;37.880;2023-08-06T06:11:49;46.65;;;17.80;;
76589;SDS011;65471;55.908;37.880;2023-08-06T06:16:44;41.47;;;14.75;;
76589;SDS011;65471;55.908;37.880;2023-08-06T06:19:12;27.25;;;13.65;;
76589;SDS011;65471;55.908;37.880;2023-08-06T06:21:39;38.70;;;15.02;;
76589;SDS011;65471;55.908;37.880;2023-08-06T06:24:06;40.42;;;15.60;;
76589;SDS011;65471;55.908;37.880;2023-08-06T06:29:01;26.50;;;13.52;;
76589;SDS011;65471;55.908;37.880;2023-08-06T06:31:28;31.77;;;13.20;;
76589;SDS011;65471;55.908;37.880;2023-08-06T06:33:56;31.00;;;11.27;;
76589;SDS011;65471;55.908;37.880;2023-08-06T06:36:23;32.72;;;12.10;;
76589;SDS011;65471;55.908;37.880;2023-08-06T06:38:50;34.57;;;12.10;;
76589;SDS011;65471;55.908;37.880;2023-08-06T06:41:17;22.48;;;11.93;;
76589;SDS011;65471;55.908;37.880;2023-08-06T06:43:44;24.73;;;11.43;;
76589;SDS011;65471;55.908;37.880;2023-08-06T06:46:11;31.02;;;12.35;;
76589;SDS011;65471;55.908;37.880;2023-08-06T06:48:38;29.23;;;11.57;;
76589;SDS011;65471;55.908;37.880;2023-08-06T06:51:05;27.65;;;11.30;;
76589;SDS011;65471;55.908;37.880;2023-08-06T06:53:32;43.43;;;12.33;;
76589;SDS011;65471;55.908;37.880;2023-08-06T06:56:03;40.65;;;10.82;;
76589;SDS011;65471;55.908;37.880;2023-08-06T06:58:31;34.35;;;11.50;;
76589;SDS011;65471;55.908;37.880;2023-08-06T07:03:26;43.17;;;11.30;;
76589;SDS011;65471;55.908;37.880;2023-08-06T07:05:56;35.07;;;11.07;;
76589;SDS011;65471;55.908;37.880;2023-08-06T07:08:24;40.47;;;10.60;;
76589;SDS011;65471;55.908;37.880;2023-08-06T07:10:59;38.83;;;11.63;;
76589;SDS011;65471;55.908;37.880;2023-08-06T07:13:28;50.38;;;10.20;;
76589;SDS011;65471;55.908;37.880;2023-08-06T07:15:55;35.63;;;11.37;;
76589;SDS011;65471;55.908;37.880;2023-08-06T07:18:22;43.40;;;11.52;;
76589;SDS011;65471;55.908;37.880;2023-08-06T07:20:50;50.40;;;11.23;;
76589;SDS011;65471;55.908;37.880;2023-08-06T07:23:20;27.90;;;11.10;;
76589;SDS011;65471;55.908;37.880;2023-08-06T07:25:48;38.83;;;11.30;;
76589;SDS011;65471;55.908;37.880;2023-08-06T07:28:15;38.03;;;9.40;;
76589;SDS011;65471;55.908;37.880;2023-08-06T07:30:43;25.05;;;9.65;;
76589;SDS011;65471;55.908;37.880;2023-08-06T07:33:11;24.30;;;9.30;;
76589;SDS011;65471;55.908;37.880;2023-08-06T07:35:38;27.13;;;9.43;;
76589;SDS011;65471;55.908;37.880;2023-08-06T07:38:06;32.67;;;9.23;;
76589;SDS011;65471;55.908;37.880;2023-08-06T07:40:34;31.73;;;8.80;;
76589;SDS011;65471;55.908;37.880;2023-08-06T07:43:03;29.45;;;9.60;;
76589;SDS011;65471;55.908;37.880;2023-08-06T07:45:34;24.55;;;9.43;;
76589;SDS011;65471;55.908;37.880;2023-08-06T07:48:02;33.33;;;9.80;;
76589;SDS011;65471;55.908;37.880;2023-08-06T07:50:29;28.70;;;9.60;;
76589;SDS011;65471;55.908;37.880;2023-08-06T07:52:56;36.22;;;9.73;;
76589;SDS011;65471;55.908;37.880;2023-08-06T07:55:23;28.48;;;9.25;;
76589;SDS011;65471;55.908;37.880;2023-08-06T07:57:50;25.85;;;10.88;;
76589;SDS011;65471;55.908;37.880;2023-08-06T08:00:17;27.42;;;8.93;;
76589;SDS011;65471;55.908;37.880;2023-08-06T08:02:45;32.70;;;9.68;;
76589;SDS011;65471;55.908;37.880;2023-08-06T08:05:13;17.67;;;8.82;;
76589;SDS011;65471;55.908;37.880;2023-08-06T08:07:40;19.55;;;9.10;;
76589;SDS011;65471;55.908;37.880;2023-08-06T08:10:07;20.40;;;9.00;;
76589;SDS011;65471;55.908;37.880;2023-08-06T08:12:34;35.10;;;10.60;;
76589;SDS011;65471;55.908;37.880;2023-08-06T08:15:01;30.50;;;9.77;;
76589;SDS011;65471;55.908;37.880;2023-08-06T08:17:29;30.80;;;8.15;;
76589;SDS011;65471;55.908;37.880;2023-08-06T08:19:56;21.92;;;8.45;;
76589;SDS011;65471;55.908;37.880;2023-08-06T08:22:23;44.17;;;11.32;;
76589;SDS011;65471;55.908;37.880;2023-08-06T08:24:50;21.85;;;8.52;;
76589;SDS011;65471;55.908;37.880;2023-08-06T08:27:17;21.45;;;8.65;;
76589;SDS011;65471;55.908;37.880;2023-08-06T08:29:44;29.45;;;9.15;;
76589;SDS011;65471;55.908;37.880;2023-08-06T08:32:11;17.83;;;8.88;;
76589;SDS011;65471;55.908;37.880;2023-08-06T08:34:38;23.45;;;8.38;;
76589;SDS011;65471;55.908;37.880;2023-08-06T08:37:05;26.20;;;10.30;;
76589;SDS011;65471;55.908;37.880;2023-08-06T08:39:32;27.25;;;9.93;;
76589;SDS011;65471;55.908;37.880;2023-08-06T08:41:59;26.25;;;8.95;;
76589;SDS011;65471;55.908;37.880;2023-08-06T08:44:28;31.17;;;9.13;;
76589;SDS011;65471;55.908;37.880;2023-08-06T08:46:58;20.17;;;8.38;;
76589;SDS011;65471;55.908;37.880;2023-08-06T08:54:22;18.27;;;10.20;;
76589;SDS011;65471;55.908;37.880;2023-08-06T08:56:50;21.25;;;8.63;;
76589;SDS011;65471;55.908;37.880;2023-08-06T08:59:17;18.10;;;7.93;;
76589;SDS011;65471;55.908;37.880;2023-08-06T09:01:44;17.88;;;8.30;;
76589;SDS011;65471;55.908;37.880;2023-08-06T09:04:18;20.13;;;8.00;;
76589;SDS011;65471;55.908;37.880;2023-08-06T09:06:46;25.10;;;8.23;;
76589;SDS011;65471;55.908;37.880;2023-08-06T09:09:16;25.92;;;8.35;;
76589;SDS011;65471;55.908;37.880;2023-08-06T09:11:52;19.83;;;7.82;;
76589;SDS011;65471;55.908;37.880;2023-08-06T09:14:26;19.70;;;8.27;;
76589;SDS011;65471;55.908;37.880;2023-08-06T09:16:54;34.13;;;9.83;;
76589;SDS011;65471;55.908;37.880;2023-08-06T09:19:21;18.02;;;8.27;;
76589;SDS011;65471;55.908;37.880;2023-08-06T09:21:50;22.75;;;8.70;;
76589;SDS011;65471;55.908;37.880;2023-08-06T09:24:18;18.15;;;8.65;;
76589;SDS011;65471;55.908;37.880;2023-08-06T09:26:46;30.83;;;8.67;;
76589;SDS011;65471;55.908;37.880;2023-08-06T09:29:12;22.95;;;9.23;;
76589;SDS011;65471;55.908;37.880;2023-08-06T09:34:18;26.33;;;8.55;;
76589;SDS011;65471;55.908;37.880;2023-08-06T09:36:51;16.65;;;8.52;;
76589;SDS011;65471;55.908;37.880;2023-08-06T09:39:21;26.25;;;9.27;;
76589;SDS011;65471;55.908;37.880;2023-08-06T09:41:58;21.13;;;8.25;;
76589;SDS011;65471;55.908;37.880;2023-08-06T09:44:26;24.73;;;7.85;;
76589;SDS011;65471;55.908;37.880;2023-08-06T09:46:55;17.58;;;8.48;;
76589;SDS011;65471;55.908;37.880;2023-08-06T09:49:26;22.85;;;8.85;;
76589;SDS011;65471;55.908;37.880;2023-08-06T09:51:59;14.82;;;8.45;;
76589;SDS011;65471;55.908;37.880;2023-08-06T09:54:27;13.40;;;8.30;;
76589;SDS011;65471;55.908;37.880;2023-08-06T09:56:55;17.27;;;7.97;;
76589;SDS011;65471;55.908;37.880;2023-08-06T09:59:23;21.17;;;8.20;;
76589;SDS011;65471;55.908;37.880;2023-08-06T10:01:51;22.48;;;9.48;;
76589;SDS011;65471;55.908;37.880;2023-08-06T10:04:19;23.73;;;9.27;;
76589;SDS011;65471;55.908;37.880;2023-08-06T10:06:51;20.27;;;9.70;;
76589;SDS011;65471;55.908;37.880;2023-08-06T10:09:19;19.02;;;10.93;;
76589;SDS011;65471;55.908;37.880;2023-08-06T10:11:50;34.17;;;12.48;;
76589;SDS011;65471;55.908;37.880;2023-08-06T10:14:27;16.65;;;11.20;;
76589;SDS011;65471;55.908;37.880;2023-08-06T10:16:57;23.48;;;11.63;;
76589;SDS011;65471;55.908;37.880;2023-08-06T10:19:25;18.85;;;9.27;;
76589;SDS011;65471;55.908;37.880;2023-08-06T10:22:09;23.63;;;9.95;;
76589;SDS011;65471;55.908;37.880;2023-08-06T10:27:27;13.88;;;8.40;;
76589;SDS011;65471;55.908;37.880;2023-08-06T10:32:53;25.33;;;8.57;;
76589;SDS011;65471;55.908;37.880;2023-08-06T10:35:28;18.05;;;8.93;;
76589;SDS011;65471;55.908;37.880;2023-08-06T10:43:34;21.25;;;9.73;;
76589;SDS011;65471;55.908;37.880;2023-08-06T10:46:09;14.40;;;9.38;;
76589;SDS011;65471;55.908;37.880;2023-08-06T10:51:08;18.27;;;9.68;;
76589;SDS011;65471;55.908;37.880;2023-08-06T10:53:43;17.48;;;9.50;;
76589;SDS011;65471;55.908;37.880;2023-08-06T10:56:18;30.15;;;9.05;;
76589;SDS011;65471;55.908;37.880;2023-08-06T10:58:50;17.35;;;9.48;;
76589;SDS011;65471;55.908;37.880;2023-08-06T11:01:18;20.45;;;9.68;;
76589;SDS011;65471;55.908;37.880;2023-08-06T11:03:45;34.40;;;9.82;;
76589;SDS011;65471;55.908;37.880;2023-08-06T11:06:17;30.92;;;9.40;;
76589;SDS011;65471;55.908;37.880;2023-08-06T11:08:52;11.82;;;9.07;;
76589;SDS011;65471;55.908;37.880;2023-08-06T11:11:21;14.48;;;8.90;;
76589;SDS011;65471;55.908;37.880;2023-08-06T11:13:50;18.77;;;8.48;;
76589;SDS011;65471;55.908;37.880;2023-08-06T11:16:21;29.48;;;9.38;;
76589;SDS011;65471;55.908;37.880;2023-08-06T11:18:52;19.42;;;9.18;;
76589;SDS011;65471;55.908;37.880;2023-08-06T11:21:21;19.83;;;9.23;;
76589;SDS011;65471;55.908;37.880;2023-08-06T11:23:49;14.90;;;8.75;;
76589;SDS011;65471;55.908;37.880;2023-08-06T11:26:22;24.88;;;8.60;;
76589;SDS011;65471;55.908;37.880;2023-08-06T11:28:52;22.67;;;10.00;;
76589;SDS011;65471;55.908;37.880;2023-08-06T11:31:19;26.60;;;9.77;;
76589;SDS011;65471;55.908;37.880;2023-08-06T11:33:50;13.68;;;8.48;;
76589;SDS011;65471;55.908;37.880;2023-08-06T11:36:28;24.48;;;8.73;;
76589;SDS011;65471;55.908;37.880;2023-08-06T11:38:57;30.20;;;9.60;;
76589;SDS011;65471;55.908;37.880;2023-08-06T11:41:27;23.13;;;8.43;;
76589;SDS011;65471;55.908;37.880;2023-08-06T11:43:55;24.25;;;8.82;;
76589;SDS011;65471;55.908;37.880;2023-08-06T11:46:22;22.35;;;9.38;;
76589;SDS011;65471;55.908;37.880;2023-08-06T11:48:50;19.60;;;9.07;;
76589;SDS011;65471;55.908;37.880;2023-08-06T11:51:26;21.55;;;9.88;;
76589;SDS011;65471;55.908;37.880;2023-08-06T11:53:56;60.83;;;10.85;;
76589;SDS011;65471;55.908;37.880;2023-08-06T11:56:24;18.17;;;9.95;;
76589;SDS011;65471;55.908;37.880;2023-08-06T11:58:54;14.18;;;8.77;;
76589;SDS011;65471;55.908;37.880;2023-08-06T12:01:21;22.83;;;8.38;;
76589;SDS011;65471;55.908;37.880;2023-08-06T12:03:48;18.48;;;8.23;;
76589;SDS011;65471;55.908;37.880;2023-08-06T12:06:15;16.25;;;7.95;;
76589;SDS011;65471;55.908;37.880;2023-08-06T12:08:42;23.07;;;8.13;;
76589;SDS011;65471;55.908;37.880;2023-08-06T12:11:09;350.30;;;19.47;;
76589;SDS011;65471;55.908;37.880;2023-08-06T12:13:36;24.97;;;11.00;;
76589;SDS011;65471;55.908;37.880;2023-08-06T12:16:03;43.97;;;9.95;;
76589;SDS011;65471;55.908;37.880;2023-08-06T12:18:30;18.27;;;8.80;;
76589;SDS011;65471;55.908;37.880;2023-08-06T12:20:57;15.48;;;8.38;;
76589;SDS011;65471;55.908;37.880;2023-08-06T12:23:24;102.75;;;12.15;;
76589;SDS011;65471;55.908;37.880;2023-08-06T12:25:51;41.75;;;9.48;;
76589;SDS011;65471;55.908;37.880;2023-08-06T12:28:19;29.60;;;10.55;;
76589;SDS011;65471;55.908;37.880;2023-08-06T12:30:49;34.55;;;10.40;;
76589;SDS011;65471;55.908;37.880;2023-08-06T12:33:17;37.28;;;10.68;;
76589;SDS011;65471;55.908;37.880;2023-08-06T12:35:45;39.03;;;9.57;;
76589;SDS011;65471;55.908;37.880;2023-08-06T12:38:11;26.33;;;9.98;;
76589;SDS011;65471;55.908;37.880;2023-08-06T12:40:40;31.13;;;9.15;;
76589;SDS011;65471;55.908;37.880;2023-08-06T12:43:09;19.65;;;8.77;;
76589;SDS011;65471;55.908;37.880;2023-08-06T12:45:36;31.03;;;9.70;;
76589;SDS011;65471;55.908;37.880;2023-08-06T12:48:03;24.50;;;8.52;;
76589;SDS011;65471;55.908;37.880;2023-08-06T12:50:31;26.92;;;8.57;;
76589;SDS011;65471;55.908;37.880;2023-08-06T12:52:59;16.02;;;8.80;;
76589;SDS011;65471;55.908;37.880;2023-08-06T12:55:27;13.93;;;8.43;;
76589;SDS011;65471;55.908;37.880;2023-08-06T12:57:58;18.20;;;8.82;;
76589;SDS011;65471;55.908;37.880;2023-08-06T13:00:28;29.53;;;9.83;;
76589;SDS011;65471;55.908;37.880;2023-08-06T13:02:55;15.25;;;9.20;;
76589;SDS011;65471;55.908;37.880;2023-08-06T13:05:22;31.65;;;9.50;;
76589;SDS011;65471;55.908;37.880;2023-08-06T13:07:49;27.70;;;9.30;;
76589;SDS011;65471;55.908;37.880;2023-08-06T13:10:16;48.80;;;10.20;;
76589;SDS011;65471;55.908;37.880;2023-08-06T13:12:43;26.07;;;9.30;;
76589;SDS011;65471;55.908;37.880;2023-08-06T13:15:10;39.77;;;9.60;;
76589;SDS011;65471;55.908;37.880;2023-08-06T13:17:38;169.80;;;32.15;;
76589;SDS011;65471;55.908;37.880;2023-08-06T13:20:05;94.83;;;22.43;;
76589;SDS011;65471;55.908;37.880;2023-08-06T13:22:32;166.63;;;34.95;;
76589;SDS011;65471;55.908;37.880;2023-08-06T13:24:59;47.08;;;13.75;;
76589;SDS011;65471;55.908;37.880;2023-08-06T13:27:26;46.97;;;12.23;;
76589;SDS011;65471;55.908;37.880;2023-08-06T13:29:54;30.13;;;8.85;;
76589;SDS011;65471;55.908;37.880;2023-08-06T13:32:21;20.15;;;10.27;;
76589;SDS011;65471;55.908;37.880;2023-08-06T13:34:49;39.53;;;10.00;;
76589;SDS011;65471;55.908;37.880;2023-08-06T13:37:16;26.85;;;10.00;;
76589;SDS011;65471;55.908;37.880;2023-08-06T13:39:43;17.42;;;8.90;;
76589;SDS011;65471;55.908;37.880;2023-08-06T13:42:09;13.63;;;8.38;;
76589;SDS011;65471;55.908;37.880;2023-08-06T13:44:36;22.95;;;8.75;;
76589;SDS011;65471;55.908;37.880;2023-08-06T13:47:03;36.20;;;8.70;;
76589;SDS011;65471;55.908;37.880;2023-08-06T13:49:30;18.30;;;7.75;;
76589;SDS011;65471;55.908;37.880;2023-08-06T13:51:57;22.05;;;8.45;;
76589;SDS011;65471;55.908;37.880;2023-08-06T13:54:41;19.70;;;9.55;;
76589;SDS011;65471;55.908;37.880;2023-08-06T13:57:08;30.80;;;10.07;;
76589;SDS011;65471;55.908;37.880;2023-08-06T13:59:35;13.30;;;9.13;;
76589;SDS011;65471;55.908;37.880;2023-08-06T14:02:02;31.25;;;10.60;;
76589;SDS011;65471;55.908;37.880;2023-08-06T14:04:29;14.40;;;10.38;;
76589;SDS011;65471;55.908;37.880;2023-08-06T14:06:56;25.83;;;9.95;;
76589;SDS011;65471;55.908;37.880;2023-08-06T14:09:23;25.25;;;10.52;;
76589;SDS011;65471;55.908;37.880;2023-08-06T14:11:50;25.83;;;10.38;;
76589;SDS011;65471;55.908;37.880;2023-08-06T14:14:17;14.30;;;9.90;;
76589;SDS011;65471;55.908;37.880;2023-08-06T14:16:44;38.38;;;11.40;;
76589;SDS011;65471;55.908;37.880;2023-08-06T14:19:11;31.70;;;11.05;;
76589;SDS011;65471;55.908;37.880;2023-08-06T14:21:38;34.25;;;12.02;;
76589;SDS011;65471;55.908;37.880;2023-08-06T14:24:05;25.73;;;11.75;;
76589;SDS011;65471;55.908;37.880;2023-08-06T14:26:32;37.20;;;12.02;;
76589;SDS011;65471;55.908;37.880;2023-08-06T14:28:59;25.05;;;11.65;;
76589;SDS011;65471;55.908;37.880;2023-08-06T14:33:53;29.05;;;11.82;;
76589;SDS011;65471;55.908;37.880;2023-08-06T14:36:20;34.75;;;12.02;;
76589;SDS011;65471;55.908;37.880;2023-08-06T14:38:47;26.45;;;11.45;;
76589;SDS011;65471;55.908;37.880;2023-08-06T14:41:24;29.20;;;13.30;;
76589;SDS011;65471;55.908;37.880;2023-08-06T14:43:51;32.45;;;12.93;;
76589;SDS011;65471;55.908;37.880;2023-08-06T14:46:19;33.28;;;13.05;;
76589;SDS011;65471;55.908;37.880;2023-08-06T14:48:46;44.47;;;12.33;;
76589;SDS011;65471;55.908;37.880;2023-08-06T14:51:13;39.73;;;12.30;;
76589;SDS011;65471;55.908;37.880;2023-08-06T14:53:40;33.47;;;11.52;;
76589;SDS011;65471;55.908;37.880;2023-08-06T14:56:08;42.00;;;12.10;;
76589;SDS011;65471;55.908;37.880;2023-08-06T14:58:35;46.75;;;13.18;;